Welcome to mirrors.dotsrc.org

All our mirrors of open source software are available via http, https, ftp and an onion service. More information about our mirrors including statistics and contact information is available on our mirror info pages.

For information about dotsrc.org and our other services please go to our website.

Index of /pub/trisquel/pool/main/w/

File Name  ↓ File Size  ↓ Date  ↓ 
Parent directory/--
wax.js/-2014-02-06 19:45:47
wsil4j/-2014-02-06 19:50:35
withsqlite/-2014-02-06 19:55:52
web2ldap/-2014-02-06 20:01:42
webdeploy/-2016-06-24 21:00:19
webkitgtk-sharp3/-2016-06-24 21:47:07
wcsaxes/-2016-07-15 14:55:14
woo/-2019-04-15 04:52:33
wakeup/-2020-05-30 22:46:29
why/-2020-05-30 22:46:33
writetype/-2020-05-30 22:46:35
winswitch/-2020-12-11 00:05:56
webkitgtk/-2020-12-11 00:05:56
wader/-2020-12-11 00:05:56
w3af/-2020-12-11 00:05:56
wfrog/-2020-12-11 00:05:56
webgui/-2020-12-11 00:05:56
wicd-kde/-2020-12-11 00:05:56
wammu/-2020-12-11 00:05:56
weboob/-2020-12-11 00:05:56
wmii/-2020-12-11 00:05:56
webapps-applications/-2020-12-11 00:05:56
w3c-sgml-lib/-2020-12-11 00:05:56
wally/-2020-12-11 00:05:56
w3c-markup-validator/-2020-12-11 00:05:56
web2py/-2020-12-11 00:05:56
wagon2/-2020-12-11 00:05:56
watershed/-2020-12-11 00:05:56
webkitkde/-2020-12-11 00:05:56
what-utils/-2020-12-11 00:05:56
webkit2pdf/-2020-12-11 00:05:56
whiteboard/-2020-12-11 00:05:56
wesnoth-1.12/-2020-12-11 00:05:56
witty/-2020-12-11 00:05:56
webbrowser-app/-2020-12-11 00:05:56
wicd/-2020-12-11 00:05:56
wsjt/-2020-12-11 00:05:57
wsdl2c/-2020-12-11 00:05:57
wordpress-openid/-2020-12-11 00:05:57
wxbanker/-2020-12-11 00:05:57
wc-mode/-2020-12-11 19:35:35
wss4j/-2020-12-11 19:57:56
webassets/-2020-12-11 20:07:00
whatthepatch/-2020-12-11 20:07:00
whichcraft/-2020-12-11 20:07:00
wchartype/-2020-12-11 20:07:00
window-mocker/-2020-12-11 20:07:01
wtf-peewee/-2020-12-11 20:07:02
wsgicors/-2020-12-11 20:07:02
wtforms/-2020-12-11 20:07:02
wafw00f/-2020-12-11 20:17:03
watson/-2020-12-11 20:17:09
weevely/-2020-12-11 20:17:11
whatmaps/-2020-12-11 20:17:37
whalebuilder/-2020-12-11 20:17:37
wikitrans/-2020-12-11 20:17:54
wine1.6/-2020-12-11 20:17:55
witalian/-2020-12-11 20:17:56
wlc/-2020-12-11 20:17:57
webcit/-2021-09-20 23:34:26
wxpython3.0/-2021-09-20 23:50:03
webauth/-2021-09-20 23:55:19
wesnoth-1.14/-2021-09-20 23:55:22
why3/-2021-09-20 23:55:23
wait-for-it/-2022-03-08 19:33:44
webkit-image/-2022-03-08 19:33:44
wikipediafs/-2022-03-08 19:33:45
webissues-server/-2022-03-08 19:33:45
wmaloader/-2022-03-08 19:33:45
wysihtml/-2022-03-08 19:33:45
wagon/-2022-03-08 19:33:46
wwwstat/-2022-03-08 19:33:46
wayv/-2022-03-08 19:33:46
webkit-sharp/-2022-03-08 19:33:46
wallpaper/-2022-03-08 21:44:22
woof/-2022-03-08 21:44:22
webserver-package/-2022-03-08 21:44:23
wmii-doc/-2022-03-08 21:44:23
webservice-office-zoho/-2022-03-08 21:44:24
wotsap/-2022-03-08 21:44:25
weathermap4rrd/-2022-03-08 21:44:25
wmbatppc/-2022-03-08 21:44:25
w2do/-2022-03-08 21:44:25
wifi-radar/-2022-03-08 21:44:26
webcheck/-2022-03-08 21:44:26
wpp/-2022-03-08 21:44:27
winpdb/-2022-03-08 21:44:27
wpeditor/-2022-03-08 21:44:27
whyteboard/-2022-03-08 21:44:28
winefish/-2022-03-08 21:44:28
wulfware/-2022-03-08 21:44:28
webhelpers/-2022-03-08 21:44:29
weirdx/-2022-06-04 15:17:28
weechat-el/-2022-06-04 15:27:32
ws-butler/-2022-06-04 15:27:32
with-simulated-input-el/-2022-06-04 15:27:32
web-mode/-2022-06-04 15:27:32
writegood-mode/-2022-06-04 15:27:32
with-editor/-2022-06-04 15:27:32
webcomponentsjs-custom-element-v0.js/-2022-06-04 15:53:12
wala/-2022-06-04 16:00:39
watchtower-clojure/-2022-06-04 16:00:39
webjars-locator-core/-2022-06-04 16:00:40
webjars-locator/-2022-06-04 16:00:40
werken.xpath/-2022-06-04 16:00:41
websocket-api/-2022-06-04 16:00:41
weupnp/-2022-06-04 16:00:41
wildfly-common/-2022-06-04 16:00:42
wildfly-client-config/-2022-06-04 16:00:42
wsdl4j/-2022-06-04 16:00:48
what-is-python/-2022-06-04 16:12:40
waitress/-2022-06-04 16:17:49
wcwidth/-2022-06-04 16:17:50
watcher-dashboard/-2022-06-04 16:17:50
webcolors/-2022-06-04 16:17:50
wokkel/-2022-06-04 16:17:50
wsgiproxy2/-2022-06-04 16:17:50
wimsapi/-2022-06-04 16:17:50
websocket-client/-2022-06-04 16:17:50
willow/-2022-06-04 16:17:50
wurlitzer/-2022-06-04 16:17:50
wcag-contrast-ratio/-2022-06-04 16:17:50
webpy/-2022-06-04 16:17:50
webtest/-2022-06-04 16:17:50
w3c-linkchecker/-2022-06-04 16:51:53
w3-dtd-mathml/-2022-06-04 16:51:53
w3m-el/-2022-06-04 16:51:53
w3m-el-snapshot/-2022-06-04 16:51:54
wakeonlan/-2022-06-04 16:51:54
wadc/-2022-06-04 16:51:54
wajig/-2022-06-04 16:51:54
wand/-2022-06-04 16:51:55
wapiti/-2022-06-04 16:52:03
wapua/-2022-06-04 16:52:03
wasi-libc/-2022-06-04 16:52:43
watcher-tempest-plugin/-2022-06-04 16:52:43
watcher/-2022-06-04 16:52:43
wavesurfer/-2022-06-04 16:52:45
wayland-protocols/-2022-06-04 16:52:45
weasyprint/-2022-06-04 16:52:50
webcamd/-2022-06-04 16:52:51
webapps-metainfo/-2022-06-04 16:52:51
weather-util/-2022-06-04 16:52:51
websploit/-2022-06-04 16:53:00
webmagick/-2022-06-04 16:53:00
weechat-scripts/-2022-06-04 16:53:02
weka/-2022-06-04 16:53:03
weresync/-2022-06-04 16:53:04
wfuzz/-2022-06-04 16:53:38
wfrench/-2022-06-04 16:53:38
whichwayisup/-2022-06-04 16:53:39
whatweb/-2022-06-04 16:53:39
when/-2022-06-04 16:53:39
whiff/-2022-06-04 16:53:39
whohas/-2022-06-04 16:53:40
whizzytex/-2022-06-04 16:53:40
wig/-2022-06-04 16:54:30
wiki2beamer/-2022-06-04 16:54:30
widemargin/-2022-06-04 16:54:30
wiliki/-2022-06-04 16:54:30
wifite/-2022-06-04 16:54:30
wikipedia2text/-2022-06-04 16:54:30
wims-lti/-2022-06-04 16:54:33
wims-help/-2022-06-04 16:54:33
win-iconv/-2022-06-04 16:54:35
windows-el/-2022-06-04 16:54:36
wl-beta/-2022-06-04 16:54:48
wl/-2022-06-04 16:54:48
wm-icons/-2022-06-04 16:54:50
wml/-2022-06-04 16:54:52
wondershaper/-2022-06-04 16:54:53
wordpress-plugin-http-authentication/-2022-06-04 16:54:54
wordpress-shibboleth/-2022-06-04 16:54:55
wordpress/-2022-06-04 16:54:55
wordpress-xrds-simple/-2022-06-04 16:54:55
writer2latex/-2022-06-04 16:55:05
writeboost/-2022-06-04 16:55:05
wsdd/-2022-06-04 16:55:06
wsl/-2022-06-04 16:55:09
wspanish/-2022-06-04 16:55:09
wwwconfig-common/-2022-06-04 16:55:34
wxglade/-2022-06-04 16:55:37
wcc/-2022-06-04 19:22:05
welcome2l/-2022-06-04 19:22:15
wraplinux/-2022-06-04 19:22:34
wacomtablet/-2022-06-08 11:43:40
waili/-2022-06-08 11:49:27
webkit2-sharp/-2022-06-08 11:49:27
wbxml2/-2022-06-08 11:49:27
wfmath/-2022-06-08 11:49:28
webrtc-audio-processing/-2022-06-08 11:49:28
websocketpp/-2022-06-08 11:49:28
wnn6-sdk/-2022-06-08 11:49:48
workflow/-2022-06-08 11:49:48
wpebackend-fdo/-2022-06-08 11:49:48
wslay/-2022-06-08 11:49:51
wxsvg/-2022-06-08 11:49:51
wyhash/-2022-06-08 11:49:51
wxsqlite3/-2022-06-08 11:49:51
wikidiff2/-2022-06-08 11:52:00
wal2json/-2022-06-08 11:52:06
wxpython4.0/-2022-06-08 11:53:14
wvstreams/-2022-06-08 11:55:16
w3cam/-2022-06-08 11:55:31
w-scan/-2022-06-08 11:55:31
watchdog/-2022-06-08 11:55:31
watchcatd/-2022-06-08 11:55:31
warmux/-2022-06-08 11:55:31
warzone2100/-2022-06-08 11:55:31
waffle/-2022-06-08 11:55:31
w1retap/-2022-06-08 11:55:31
wah-plugins/-2022-06-08 11:55:31
wallch/-2022-06-08 11:55:31
wabt/-2022-06-08 11:55:31
walinuxagent/-2022-06-08 11:55:31
wannier90/-2022-06-08 11:55:31
websockify/-2022-06-08 11:55:32
waylandpp/-2022-06-08 11:55:32
wavemon/-2022-06-08 11:55:32
waypipe/-2022-06-08 11:55:32
wdiff/-2022-06-08 11:55:32
weplab/-2022-06-08 11:55:32
weechat-matrix/-2022-06-08 11:55:32
watchman/-2022-06-08 11:55:32
wav2cdr/-2022-06-08 11:55:32
websocketd/-2022-06-08 11:55:32
wcslib/-2022-06-08 11:55:32
weightwatcher/-2022-06-08 11:55:32
wcalc/-2022-06-08 11:55:32
webdruid/-2022-06-08 11:55:32
webhook/-2022-06-08 11:55:32
wayvnc/-2022-06-08 11:55:32
webissues/-2022-06-08 11:55:32
wbar/-2022-06-08 11:55:32
wavtool-pl/-2022-06-08 11:55:32
weborf/-2022-06-08 11:55:32
wdm/-2022-06-08 11:55:32
webfs/-2022-06-08 11:55:32
webalizer/-2022-06-08 11:55:32
waybar/-2022-06-08 11:55:32
wavpack/-2022-06-08 11:55:32
weechat/-2022-06-08 11:55:32
webcamoid/-2022-06-08 11:55:32
wdisplays/-2022-06-08 11:55:32
wcd/-2022-06-08 11:55:32
wavbreaker/-2022-06-08 11:55:32
wbox/-2022-06-08 11:55:32
webdis/-2022-06-08 11:55:32
weex/-2022-06-08 11:55:32
welle.io/-2022-06-08 11:55:32
wcstools/-2022-06-08 11:55:32
wiggle/-2022-06-08 11:55:33
whoopsie-preferences/-2022-06-08 11:55:33
winff/-2022-06-08 11:55:33
wine-development/-2022-06-08 11:55:33
whowatch/-2022-06-08 11:55:33
wfview/-2022-06-08 11:55:33
whysynth/-2022-06-08 11:55:33
wev/-2022-06-08 11:55:33
wing/-2022-06-08 11:55:33
west-chamber/-2022-06-08 11:55:33
wimlib/-2022-06-08 11:55:33
weston/-2022-06-08 11:55:33
wf-recorder/-2022-06-08 11:55:33
wget2/-2022-06-08 11:55:33
widelands/-2022-06-08 11:55:33
wildmidi/-2022-06-08 11:55:33
wily/-2022-06-08 11:55:33
whitedune/-2022-06-08 11:55:33
wiipdf/-2022-06-08 11:55:33
wesnoth-1.16/-2022-06-08 11:55:33
whois/-2022-06-08 11:55:33
wham-align/-2022-06-08 11:55:33
whipper/-2022-06-08 11:55:33
whoopsie/-2022-06-08 11:55:33
wine/-2022-06-08 11:55:33
whitakers-words/-2022-06-08 11:55:33
windowlab/-2022-06-08 11:55:33
whichman/-2022-06-08 11:55:33
whitedb/-2022-06-08 11:55:33
wmbubble/-2022-06-08 11:55:34
wmstickynotes/-2022-06-08 11:55:34
wrapperfactory.app/-2022-06-08 11:55:34
wordplay/-2022-06-08 11:55:34
winrmcp/-2022-06-08 11:55:34
wmfsm/-2022-06-08 11:55:34
wit/-2022-06-08 11:55:34
wmshutdown/-2022-06-08 11:55:34
wmnet/-2022-06-08 11:55:34
wmtop/-2022-06-08 11:55:34
wmctrl/-2022-06-08 11:55:34
wmrack/-2022-06-08 11:55:34
wmtemp/-2022-06-08 11:55:34
wmbutton/-2022-06-08 11:55:34
wmcliphist/-2022-06-08 11:55:34
wmifinfo/-2022-06-08 11:55:34
wmacpi/-2022-06-08 11:55:34
wmlongrun/-2022-06-08 11:55:34
workrave/-2022-06-08 11:55:34
wmdiskmon/-2022-06-08 11:55:34
wmnut/-2022-06-08 11:55:34
wmaker/-2022-06-08 11:55:34
wmsun/-2022-06-08 11:55:34
wm2/-2022-06-08 11:55:34
wmtime/-2022-06-08 11:55:34
wmget/-2022-06-08 11:55:34
wmressel/-2022-06-08 11:55:34
wiredtiger/-2022-06-08 11:55:34
wmfire/-2022-06-08 11:55:34
wkhtmltopdf/-2022-06-08 11:55:34
woff-tools/-2022-06-08 11:55:34
wlogout/-2022-06-08 11:55:34
wmsysmon/-2022-06-08 11:55:34
wmgtemp/-2022-06-08 11:55:34
wmcube/-2022-06-08 11:55:34
wmix/-2022-06-08 11:55:34
wput/-2022-06-08 11:55:34
wireguard-go/-2022-06-08 11:55:34
woff2/-2022-06-08 11:55:34
wmpinboard/-2022-06-08 11:55:34
wmmisc/-2022-06-08 11:55:34
wmf/-2022-06-08 11:55:34
wmanager/-2022-06-08 11:55:34
wmmemload/-2022-06-08 11:55:34
wmitime/-2022-06-08 11:55:34
wmauda/-2022-06-08 11:55:34
wizznic/-2022-06-08 11:55:34
wise/-2022-06-08 11:55:34
wmifs/-2022-06-08 11:55:34
wmcalclock/-2022-06-08 11:55:34
winregfs/-2022-06-08 11:55:34
wordwarvi/-2022-06-08 11:55:34
wl-clipboard/-2022-06-08 11:55:34
wmcoincoin/-2022-06-08 11:55:34
wiredpanda/-2022-06-08 11:55:34
wlcs/-2022-06-08 11:55:34
wmload/-2022-06-08 11:55:34
wmdate/-2022-06-08 11:55:34
wp2x/-2022-06-08 11:55:34
wmcdplay/-2022-06-08 11:55:34
wrapsrv/-2022-06-08 11:55:34
wireplumber/-2022-06-08 11:55:34
wmweather+/-2022-06-08 11:55:34
wmnd/-2022-06-08 11:55:34
wireguard/-2022-06-08 11:55:34
wmforecast/-2022-06-08 11:55:34
wmpuzzle/-2022-06-08 11:55:34
wmppp.app/-2022-06-08 11:55:34
wob/-2022-06-08 11:55:34
wpewebkit/-2022-06-08 11:55:34
wmtv/-2022-06-08 11:55:34
wmmon/-2022-06-08 11:55:34
wmcalc/-2022-06-08 11:55:34
wipe/-2022-06-08 11:55:34
wmbiff/-2022-06-08 11:55:34
wordnet/-2022-06-08 11:55:34
wmail/-2022-06-08 11:55:34
wmweather/-2022-06-08 11:55:34
wmmoonclock/-2022-06-08 11:55:34
wmsystemtray/-2022-06-08 11:55:34
wlr-randr/-2022-06-08 11:55:34
wmxmms2/-2022-06-08 11:55:34
wmclock/-2022-06-08 11:55:34
wmcore/-2022-06-08 11:55:34
wmbattery/-2022-06-08 11:55:34
wings3d/-2022-06-08 11:55:34
wmcpu/-2022-06-08 11:55:34
wordgrinder/-2022-06-08 11:55:34
wmxres/-2022-06-08 11:55:34
wmwave/-2022-06-08 11:55:34
wmforkplop/-2022-06-08 11:55:34
winwrangler/-2022-06-08 11:55:34
wireshark/-2022-06-08 11:55:34
wmcpuload/-2022-06-08 11:55:34
wmhdplop/-2022-06-08 11:55:34
wofi/-2022-06-08 11:55:34
worklog/-2022-06-08 11:55:34
wmclockmon/-2022-06-08 11:55:34
wmmatrix/-2022-06-08 11:55:34
wpan-tools/-2022-06-08 11:55:34
wmdrawer/-2022-06-08 11:55:34
wiringpi/-2022-06-08 11:55:34
worker/-2022-06-08 11:55:34
wmfrog/-2022-06-08 11:55:34
wininfo/-2022-06-08 11:55:34
wp2latex/-2022-06-08 11:55:34
wmwork/-2022-06-08 11:55:34
wmmixer/-2022-06-08 11:55:34
wys/-2022-06-08 11:55:35
wxwidgets3.0/-2022-06-08 11:55:35
wxastrocapture/-2022-06-08 11:55:35
wxhexeditor/-2022-06-08 11:55:35
wuzzah/-2022-06-08 11:55:35
wreport/-2022-06-08 11:55:35
wsmancli/-2022-06-08 11:55:35
wsdd2/-2022-06-08 11:55:35
wyrd/-2022-06-08 11:55:35
wtdbg2/-2022-06-08 11:55:35
wrk/-2022-06-08 11:55:35
wsclean/-2022-06-08 11:55:35
wxmaxima/-2022-06-08 11:55:35
wsynth-dssi/-2022-06-08 11:55:35
wsl-setup/-2022-06-08 11:55:35
wxedid/-2022-06-08 11:55:35
wv/-2022-06-08 11:55:35
wtype/-2022-06-08 11:55:35
wwl/-2022-06-08 11:55:35
wzip/-2022-06-08 11:55:35
wuzz/-2022-06-08 11:55:35
wslu/-2022-06-08 11:55:35
wvdial/-2022-06-08 11:55:35
wsjtx/-2022-06-08 11:55:35
writerperfect/-2022-06-08 11:55:58
whereami/-2022-07-31 20:33:12
wifi-qr/-2022-07-31 21:28:08
wmaker-data/-2022-07-31 21:28:12
wayland/-2022-09-15 19:55:43
wget/-2022-10-13 13:08:45
wireless-regdb/-2022-10-21 18:13:43
wide-dhcpv6/-2022-11-05 13:51:11
wireguard-linux-compat/-2022-11-15 13:19:51
wireless-tools/-2022-11-30 22:41:41
wpa/-2022-11-30 22:41:41
webp-pixbuf-loader/-2022-12-02 01:12:10
w3m/-2023-01-09 19:05:15
webkit2gtk/-2023-01-09 19:07:58
wheel/-2023-01-24 13:05:06
wireless-crda/-2023-01-26 18:07:42
wims/-2023-01-26 18:07:42
wims-moodle/-2023-01-26 18:07:42
wlroots/-2023-01-26 18:29:16
wolfssl/-2023-01-26 18:29:16